In Rescue
 
Open Full Screen Window  High Contrast Mode
Wind Gusting 00 knots
04
January 24, 2020 9:44 PM EST
Present Weather: Rain
Weather Information
Wind Direction
  200 °
Wind Speed
  04 kt (5 mph)
Wind Gust
  00 kt (0 mph)
Altimeter
29.78 in
Visibility
1/2 SM
Temperature
02° C
36° F
Dewpoint
02° C
36° F
Humidity
100%
1hr Rain Fall
00.02 in.
24hr Rain Fall
00.23 in.
Sky Condition
Overcast @ 300 ft
LIFR

METAR KIRS 250244Z AUTO 20004KT 1/2SM RA OVC003 02/02 A2978 RMK AO2 P0002 T00200015

FAA Disclaimer: The data displayed is for advisory purposes only and is not to be used for flight planning or operations.